sensor_id;sensor_type;location;lat;lon;timestamp;P1;durP1;ratioP1;P2;durP2;ratioP2
67902;SDS011;54708;43.612;1.568;2023-12-28T00:01:07;10.18;;;6.75;;
67902;SDS011;54708;43.612;1.568;2023-12-28T00:03:32;12.15;;;6.57;;
67902;SDS011;54708;43.612;1.568;2023-12-28T00:05:58;9.65;;;6.75;;
67902;SDS011;54708;43.612;1.568;2023-12-28T00:08:23;8.85;;;6.78;;
67902;SDS011;54708;43.612;1.568;2023-12-28T00:10:48;9.68;;;6.47;;
67902;SDS011;54708;43.612;1.568;2023-12-28T00:13:14;10.85;;;7.38;;
67902;SDS011;54708;43.612;1.568;2023-12-28T00:15:39;12.57;;;7.32;;
67902;SDS011;54708;43.612;1.568;2023-12-28T00:18:04;13.07;;;7.63;;
67902;SDS011;54708;43.612;1.568;2023-12-28T00:20:30;9.70;;;8.05;;
67902;SDS011;54708;43.612;1.568;2023-12-28T00:22:55;9.20;;;7.15;;
67902;SDS011;54708;43.612;1.568;2023-12-28T00:25:21;11.02;;;7.47;;
67902;SDS011;54708;43.612;1.568;2023-12-28T00:27:46;11.70;;;7.15;;
67902;SDS011;54708;43.612;1.568;2023-12-28T00:30:12;11.25;;;6.75;;
67902;SDS011;54708;43.612;1.568;2023-12-28T00:32:38;11.40;;;8.02;;
67902;SDS011;54708;43.612;1.568;2023-12-28T00:35:04;9.38;;;7.65;;
67902;SDS011;54708;43.612;1.568;2023-12-28T00:37:29;9.52;;;7.35;;
67902;SDS011;54708;43.612;1.568;2023-12-28T00:39:55;13.70;;;7.93;;
67902;SDS011;54708;43.612;1.568;2023-12-28T00:42:20;12.63;;;7.78;;
67902;SDS011;54708;43.612;1.568;2023-12-28T00:44:45;8.52;;;6.70;;
67902;SDS011;54708;43.612;1.568;2023-12-28T00:47:11;13.25;;;6.25;;
67902;SDS011;54708;43.612;1.568;2023-12-28T00:49:36;10.65;;;6.40;;
67902;SDS011;54708;43.612;1.568;2023-12-28T00:52:02;12.43;;;6.88;;
67902;SDS011;54708;43.612;1.568;2023-12-28T00:54:27;10.05;;;6.78;;
67902;SDS011;54708;43.612;1.568;2023-12-28T00:56:53;10.27;;;6.45;;
67902;SDS011;54708;43.612;1.568;2023-12-28T00:59:18;14.98;;;6.60;;
67902;SDS011;54708;43.612;1.568;2023-12-28T01:01:43;14.02;;;8.07;;
67902;SDS011;54708;43.612;1.568;2023-12-28T01:04:09;11.27;;;7.60;;
67902;SDS011;54708;43.612;1.568;2023-12-28T01:06:35;11.20;;;7.68;;
67902;SDS011;54708;43.612;1.568;2023-12-28T01:09:00;9.90;;;7.57;;
67902;SDS011;54708;43.612;1.568;2023-12-28T01:11:25;11.75;;;7.43;;
67902;SDS011;54708;43.612;1.568;2023-12-28T01:13:51;15.43;;;8.57;;
67902;SDS011;54708;43.612;1.568;2023-12-28T01:16:17;13.98;;;9.40;;
67902;SDS011;54708;43.612;1.568;2023-12-28T01:18:42;10.55;;;8.02;;
67902;SDS011;54708;43.612;1.568;2023-12-28T01:21:08;8.98;;;7.40;;
67902;SDS011;54708;43.612;1.568;2023-12-28T01:23:33;12.32;;;7.95;;
67902;SDS011;54708;43.612;1.568;2023-12-28T01:25:59;10.77;;;8.05;;
67902;SDS011;54708;43.612;1.568;2023-12-28T01:28:25;11.52;;;7.45;;
67902;SDS011;54708;43.612;1.568;2023-12-28T01:30:50;11.52;;;7.75;;
67902;SDS011;54708;43.612;1.568;2023-12-28T01:33:15;9.63;;;8.38;;
67902;SDS011;54708;43.612;1.568;2023-12-28T01:35:41;10.00;;;7.68;;
67902;SDS011;54708;43.612;1.568;2023-12-28T01:38:06;15.25;;;7.57;;
67902;SDS011;54708;43.612;1.568;2023-12-28T01:40:32;10.25;;;6.63;;
67902;SDS011;54708;43.612;1.568;2023-12-28T01:42:58;12.68;;;7.22;;
67902;SDS011;54708;43.612;1.568;2023-12-28T01:45:23;18.67;;;10.00;;
67902;SDS011;54708;43.612;1.568;2023-12-28T01:47:48;20.17;;;11.32;;
67902;SDS011;54708;43.612;1.568;2023-12-28T01:50:14;17.25;;;9.75;;
67902;SDS011;54708;43.612;1.568;2023-12-28T01:52:40;16.50;;;9.35;;
67902;SDS011;54708;43.612;1.568;2023-12-28T01:55:06;13.77;;;8.70;;
67902;SDS011;54708;43.612;1.568;2023-12-28T01:57:33;12.93;;;9.20;;
67902;SDS011;54708;43.612;1.568;2023-12-28T01:59:58;18.13;;;8.55;;
67902;SDS011;54708;43.612;1.568;2023-12-28T02:02:26;14.98;;;8.30;;
67902;SDS011;54708;43.612;1.568;2023-12-28T02:04:52;11.63;;;8.23;;
67902;SDS011;54708;43.612;1.568;2023-12-28T02:07:18;13.90;;;9.70;;
67902;SDS011;54708;43.612;1.568;2023-12-28T02:09:45;11.77;;;8.10;;
67902;SDS011;54708;43.612;1.568;2023-12-28T02:12:11;9.82;;;7.85;;
67902;SDS011;54708;43.612;1.568;2023-12-28T02:14:36;13.95;;;8.88;;
67902;SDS011;54708;43.612;1.568;2023-12-28T02:19:54;15.45;;;8.65;;
67902;SDS011;54708;43.612;1.568;2023-12-28T02:22:21;14.40;;;8.25;;
67902;SDS011;54708;43.612;1.568;2023-12-28T02:24:53;9.32;;;7.53;;
67902;SDS011;54708;43.612;1.568;2023-12-28T02:27:21;12.23;;;7.78;;
67902;SDS011;54708;43.612;1.568;2023-12-28T02:29:46;12.38;;;8.73;;
67902;SDS011;54708;43.612;1.568;2023-12-28T02:32:12;11.52;;;7.50;;
67902;SDS011;54708;43.612;1.568;2023-12-28T02:34:37;12.10;;;9.20;;
67902;SDS011;54708;43.612;1.568;2023-12-28T02:37:05;19.10;;;9.45;;
67902;SDS011;54708;43.612;1.568;2023-12-28T02:39:31;9.85;;;7.93;;
67902;SDS011;54708;43.612;1.568;2023-12-28T02:41:57;9.55;;;7.28;;
67902;SDS011;54708;43.612;1.568;2023-12-28T02:44:23;12.75;;;9.20;;
67902;SDS011;54708;43.612;1.568;2023-12-28T02:46:48;10.63;;;7.97;;
67902;SDS011;54708;43.612;1.568;2023-12-28T02:49:14;12.48;;;7.28;;
67902;SDS011;54708;43.612;1.568;2023-12-28T02:51:40;13.18;;;8.70;;
67902;SDS011;54708;43.612;1.568;2023-12-28T02:54:07;13.50;;;8.68;;
67902;SDS011;54708;43.612;1.568;2023-12-28T02:56:33;15.85;;;9.50;;
67902;SDS011;54708;43.612;1.568;2023-12-28T02:58:58;12.85;;;8.38;;
67902;SDS011;54708;43.612;1.568;2023-12-28T03:01:24;11.55;;;8.55;;
67902;SDS011;54708;43.612;1.568;2023-12-28T03:03:49;13.95;;;9.07;;
67902;SDS011;54708;43.612;1.568;2023-12-28T03:06:14;9.98;;;8.23;;
67902;SDS011;54708;43.612;1.568;2023-12-28T03:08:40;14.57;;;8.60;;
67902;SDS011;54708;43.612;1.568;2023-12-28T03:11:05;14.07;;;8.18;;
67902;SDS011;54708;43.612;1.568;2023-12-28T03:13:30;12.00;;;9.70;;
67902;SDS011;54708;43.612;1.568;2023-12-28T03:15:57;15.10;;;9.20;;
67902;SDS011;54708;43.612;1.568;2023-12-28T03:18:22;14.55;;;8.60;;
67902;SDS011;54708;43.612;1.568;2023-12-28T03:20:48;13.80;;;9.20;;
67902;SDS011;54708;43.612;1.568;2023-12-28T03:23:13;13.48;;;8.77;;
67902;SDS011;54708;43.612;1.568;2023-12-28T03:25:38;15.05;;;9.05;;
67902;SDS011;54708;43.612;1.568;2023-12-28T03:28:04;13.30;;;8.38;;
67902;SDS011;54708;43.612;1.568;2023-12-28T03:30:29;14.60;;;9.23;;
67902;SDS011;54708;43.612;1.568;2023-12-28T03:32:54;12.48;;;8.75;;
67902;SDS011;54708;43.612;1.568;2023-12-28T03:35:20;11.57;;;8.93;;
67902;SDS011;54708;43.612;1.568;2023-12-28T03:37:45;11.10;;;8.68;;
67902;SDS011;54708;43.612;1.568;2023-12-28T03:40:11;15.40;;;8.13;;
67902;SDS011;54708;43.612;1.568;2023-12-28T03:42:36;12.18;;;9.15;;
67902;SDS011;54708;43.612;1.568;2023-12-28T03:45:03;11.43;;;7.82;;
67902;SDS011;54708;43.612;1.568;2023-12-28T03:47:29;10.45;;;8.07;;
67902;SDS011;54708;43.612;1.568;2023-12-28T03:49:54;9.98;;;7.88;;
67902;SDS011;54708;43.612;1.568;2023-12-28T03:52:21;11.98;;;8.25;;
67902;SDS011;54708;43.612;1.568;2023-12-28T03:54:48;10.13;;;7.45;;
67902;SDS011;54708;43.612;1.568;2023-12-28T03:57:13;10.93;;;7.55;;
67902;SDS011;54708;43.612;1.568;2023-12-28T03:59:39;10.90;;;7.68;;
67902;SDS011;54708;43.612;1.568;2023-12-28T04:02:04;13.48;;;7.72;;
67902;SDS011;54708;43.612;1.568;2023-12-28T04:04:30;10.88;;;7.68;;
67902;SDS011;54708;43.612;1.568;2023-12-28T04:06:55;13.38;;;7.45;;
67902;SDS011;54708;43.612;1.568;2023-12-28T04:09:21;12.43;;;7.50;;
67902;SDS011;54708;43.612;1.568;2023-12-28T04:11:46;11.82;;;8.32;;
67902;SDS011;54708;43.612;1.568;2023-12-28T04:14:12;15.25;;;8.52;;
67902;SDS011;54708;43.612;1.568;2023-12-28T04:16:37;14.90;;;9.43;;
67902;SDS011;54708;43.612;1.568;2023-12-28T04:19:02;10.82;;;7.85;;
67902;SDS011;54708;43.612;1.568;2023-12-28T04:21:28;13.43;;;7.22;;
67902;SDS011;54708;43.612;1.568;2023-12-28T04:23:53;9.48;;;6.38;;
67902;SDS011;54708;43.612;1.568;2023-12-28T04:26:18;11.13;;;6.93;;
67902;SDS011;54708;43.612;1.568;2023-12-28T04:28:46;9.15;;;6.30;;
67902;SDS011;54708;43.612;1.568;2023-12-28T04:31:12;7.47;;;6.70;;
67902;SDS011;54708;43.612;1.568;2023-12-28T04:33:37;12.48;;;6.97;;
67902;SDS011;54708;43.612;1.568;2023-12-28T04:36:03;13.07;;;8.85;;
67902;SDS011;54708;43.612;1.568;2023-12-28T04:38:31;12.55;;;7.22;;
67902;SDS011;54708;43.612;1.568;2023-12-28T04:40:57;10.05;;;6.95;;
67902;SDS011;54708;43.612;1.568;2023-12-28T04:43:23;12.32;;;6.85;;
67902;SDS011;54708;43.612;1.568;2023-12-28T04:45:51;8.43;;;6.82;;
67902;SDS011;54708;43.612;1.568;2023-12-28T04:48:16;11.00;;;6.63;;
67902;SDS011;54708;43.612;1.568;2023-12-28T04:50:46;9.23;;;6.28;;
67902;SDS011;54708;43.612;1.568;2023-12-28T04:53:12;10.18;;;5.80;;
67902;SDS011;54708;43.612;1.568;2023-12-28T04:55:38;9.05;;;6.05;;
67902;SDS011;54708;43.612;1.568;2023-12-28T04:58:03;6.82;;;5.50;;
67902;SDS011;54708;43.612;1.568;2023-12-28T05:00:28;8.52;;;4.85;;
67902;SDS011;54708;43.612;1.568;2023-12-28T05:02:54;7.40;;;5.47;;
67902;SDS011;54708;43.612;1.568;2023-12-28T05:05:19;6.95;;;4.97;;
67902;SDS011;54708;43.612;1.568;2023-12-28T05:07:44;8.55;;;5.10;;
67902;SDS011;54708;43.612;1.568;2023-12-28T05:10:10;10.50;;;5.05;;
67902;SDS011;54708;43.612;1.568;2023-12-28T05:12:35;7.95;;;4.82;;
67902;SDS011;54708;43.612;1.568;2023-12-28T05:15:00;5.75;;;4.97;;
67902;SDS011;54708;43.612;1.568;2023-12-28T05:17:26;5.88;;;4.82;;
67902;SDS011;54708;43.612;1.568;2023-12-28T05:19:51;9.48;;;4.30;;
67902;SDS011;54708;43.612;1.568;2023-12-28T05:22:16;6.55;;;4.55;;
67902;SDS011;54708;43.612;1.568;2023-12-28T05:24:42;12.10;;;4.80;;
67902;SDS011;54708;43.612;1.568;2023-12-28T05:27:07;9.20;;;6.05;;
67902;SDS011;54708;43.612;1.568;2023-12-28T05:29:32;7.63;;;4.63;;
67902;SDS011;54708;43.612;1.568;2023-12-28T05:31:58;9.45;;;4.65;;
67902;SDS011;54708;43.612;1.568;2023-12-28T05:34:23;6.85;;;4.53;;
67902;SDS011;54708;43.612;1.568;2023-12-28T05:36:49;5.47;;;4.60;;
67902;SDS011;54708;43.612;1.568;2023-12-28T05:39:14;7.00;;;5.00;;
67902;SDS011;54708;43.612;1.568;2023-12-28T05:41:40;9.05;;;5.60;;
67902;SDS011;54708;43.612;1.568;2023-12-28T05:44:05;8.90;;;5.13;;
67902;SDS011;54708;43.612;1.568;2023-12-28T05:46:31;5.80;;;4.18;;
67902;SDS011;54708;43.612;1.568;2023-12-28T05:48:56;6.90;;;4.57;;
67902;SDS011;54708;43.612;1.568;2023-12-28T05:51:21;7.53;;;4.80;;
67902;SDS011;54708;43.612;1.568;2023-12-28T05:53:47;6.63;;;4.80;;
67902;SDS011;54708;43.612;1.568;2023-12-28T05:56:12;8.63;;;4.85;;
67902;SDS011;54708;43.612;1.568;2023-12-28T05:58:38;7.55;;;5.15;;
67902;SDS011;54708;43.612;1.568;2023-12-28T06:01:04;6.88;;;4.60;;
67902;SDS011;54708;43.612;1.568;2023-12-28T06:03:30;6.40;;;5.00;;
67902;SDS011;54708;43.612;1.568;2023-12-28T06:05:56;7.63;;;4.57;;
67902;SDS011;54708;43.612;1.568;2023-12-28T06:08:21;7.22;;;4.85;;
67902;SDS011;54708;43.612;1.568;2023-12-28T06:10:46;6.30;;;4.13;;
67902;SDS011;54708;43.612;1.568;2023-12-28T06:13:12;9.00;;;4.72;;
67902;SDS011;54708;43.612;1.568;2023-12-28T06:15:38;5.82;;;4.00;;
67902;SDS011;54708;43.612;1.568;2023-12-28T06:18:03;4.47;;;4.07;;
67902;SDS011;54708;43.612;1.568;2023-12-28T06:20:29;7.90;;;4.75;;
67902;SDS011;54708;43.612;1.568;2023-12-28T06:22:54;11.43;;;5.85;;
67902;SDS011;54708;43.612;1.568;2023-12-28T06:25:20;5.57;;;3.80;;
67902;SDS011;54708;43.612;1.568;2023-12-28T06:27:45;6.25;;;3.95;;
67902;SDS011;54708;43.612;1.568;2023-12-28T06:30:11;10.00;;;4.38;;
67902;SDS011;54708;43.612;1.568;2023-12-28T06:32:37;14.20;;;4.38;;
67902;SDS011;54708;43.612;1.568;2023-12-28T06:35:02;6.88;;;4.22;;
67902;SDS011;54708;43.612;1.568;2023-12-28T06:37:28;8.82;;;4.65;;
67902;SDS011;54708;43.612;1.568;2023-12-28T06:39:53;9.93;;;4.97;;
67902;SDS011;54708;43.612;1.568;2023-12-28T06:42:18;8.10;;;4.65;;
67902;SDS011;54708;43.612;1.568;2023-12-28T06:44:44;6.75;;;3.95;;
67902;SDS011;54708;43.612;1.568;2023-12-28T06:47:09;8.30;;;4.53;;
67902;SDS011;54708;43.612;1.568;2023-12-28T06:49:35;6.80;;;4.43;;
67902;SDS011;54708;43.612;1.568;2023-12-28T06:52:00;6.80;;;3.92;;
67902;SDS011;54708;43.612;1.568;2023-12-28T06:54:25;5.75;;;3.88;;
67902;SDS011;54708;43.612;1.568;2023-12-28T06:56:51;8.02;;;4.82;;
67902;SDS011;54708;43.612;1.568;2023-12-28T06:59:16;7.88;;;3.80;;
67902;SDS011;54708;43.612;1.568;2023-12-28T07:01:42;7.95;;;4.32;;
67902;SDS011;54708;43.612;1.568;2023-12-28T07:04:09;10.70;;;4.03;;
67902;SDS011;54708;43.612;1.568;2023-12-28T07:06:34;6.30;;;3.53;;
67902;SDS011;54708;43.612;1.568;2023-12-28T07:09:00;9.88;;;4.63;;
67902;SDS011;54708;43.612;1.568;2023-12-28T07:11:25;7.15;;;4.15;;
67902;SDS011;54708;43.612;1.568;2023-12-28T07:13:53;6.00;;;3.70;;
67902;SDS011;54708;43.612;1.568;2023-12-28T07:16:19;6.47;;;3.83;;
67902;SDS011;54708;43.612;1.568;2023-12-28T07:18:44;6.90;;;3.38;;
67902;SDS011;54708;43.612;1.568;2023-12-28T07:21:09;5.13;;;3.80;;
67902;SDS011;54708;43.612;1.568;2023-12-28T07:23:35;7.15;;;4.88;;
67902;SDS011;54708;43.612;1.568;2023-12-28T07:26:01;6.03;;;4.50;;
67902;SDS011;54708;43.612;1.568;2023-12-28T07:28:27;6.05;;;4.35;;
67902;SDS011;54708;43.612;1.568;2023-12-28T07:30:53;6.00;;;4.05;;
67902;SDS011;54708;43.612;1.568;2023-12-28T07:33:18;6.07;;;4.07;;
67902;SDS011;54708;43.612;1.568;2023-12-28T07:35:44;4.97;;;4.03;;
67902;SDS011;54708;43.612;1.568;2023-12-28T07:38:09;5.40;;;4.60;;
67902;SDS011;54708;43.612;1.568;2023-12-28T07:40:34;5.95;;;4.20;;
67902;SDS011;54708;43.612;1.568;2023-12-28T07:43:00;9.43;;;3.88;;
67902;SDS011;54708;43.612;1.568;2023-12-28T07:45:26;10.82;;;4.72;;
67902;SDS011;54708;43.612;1.568;2023-12-28T07:47:51;8.23;;;4.10;;
67902;SDS011;54708;43.612;1.568;2023-12-28T07:50:17;5.78;;;3.90;;
67902;SDS011;54708;43.612;1.568;2023-12-28T07:52:43;4.05;;;3.70;;
67902;SDS011;54708;43.612;1.568;2023-12-28T07:55:08;6.43;;;3.95;;
67902;SDS011;54708;43.612;1.568;2023-12-28T07:57:34;6.47;;;4.65;;
67902;SDS011;54708;43.612;1.568;2023-12-28T08:00:00;8.50;;;4.88;;
67902;SDS011;54708;43.612;1.568;2023-12-28T08:02:26;6.22;;;3.60;;
67902;SDS011;54708;43.612;1.568;2023-12-28T08:04:52;5.78;;;4.13;;
67902;SDS011;54708;43.612;1.568;2023-12-28T08:07:17;5.28;;;4.78;;
67902;SDS011;54708;43.612;1.568;2023-12-28T08:09:43;7.50;;;4.07;;
67902;SDS011;54708;43.612;1.568;2023-12-28T08:12:08;5.22;;;4.13;;
67902;SDS011;54708;43.612;1.568;2023-12-28T08:14:33;4.80;;;3.45;;
67902;SDS011;54708;43.612;1.568;2023-12-28T08:16:59;10.32;;;4.35;;
67902;SDS011;54708;43.612;1.568;2023-12-28T08:19:24;5.85;;;4.13;;
67902;SDS011;54708;43.612;1.568;2023-12-28T08:21:50;7.05;;;3.83;;
67902;SDS011;54708;43.612;1.568;2023-12-28T08:24:15;7.07;;;4.03;;
67902;SDS011;54708;43.612;1.568;2023-12-28T08:26:41;4.55;;;4.07;;
67902;SDS011;54708;43.612;1.568;2023-12-28T08:29:07;10.13;;;4.65;;
67902;SDS011;54708;43.612;1.568;2023-12-28T08:31:32;7.80;;;4.97;;
67902;SDS011;54708;43.612;1.568;2023-12-28T08:33:58;8.48;;;3.30;;
67902;SDS011;54708;43.612;1.568;2023-12-28T08:36:23;4.40;;;3.47;;
67902;SDS011;54708;43.612;1.568;2023-12-28T08:38:48;7.38;;;3.88;;
67902;SDS011;54708;43.612;1.568;2023-12-28T08:41:17;4.53;;;4.05;;
67902;SDS011;54708;43.612;1.568;2023-12-28T08:43:46;7.90;;;3.90;;
67902;SDS011;54708;43.612;1.568;2023-12-28T08:46:12;7.47;;;3.67;;
67902;SDS011;54708;43.612;1.568;2023-12-28T08:48:39;5.38;;;4.40;;
67902;SDS011;54708;43.612;1.568;2023-12-28T08:51:04;6.93;;;3.78;;
67902;SDS011;54708;43.612;1.568;2023-12-28T08:53:30;5.15;;;3.60;;
67902;SDS011;54708;43.612;1.568;2023-12-28T08:55:55;7.65;;;3.90;;
67902;SDS011;54708;43.612;1.568;2023-12-28T08:58:21;8.32;;;4.47;;
67902;SDS011;54708;43.612;1.568;2023-12-28T09:00:46;8.85;;;4.38;;
67902;SDS011;54708;43.612;1.568;2023-12-28T09:03:13;7.22;;;3.95;;
67902;SDS011;54708;43.612;1.568;2023-12-28T09:05:39;5.88;;;3.83;;
67902;SDS011;54708;43.612;1.568;2023-12-28T09:08:04;6.90;;;4.22;;
67902;SDS011;54708;43.612;1.568;2023-12-28T09:10:30;9.95;;;4.05;;
67902;SDS011;54708;43.612;1.568;2023-12-28T09:12:56;8.00;;;5.03;;
67902;SDS011;54708;43.612;1.568;2023-12-28T09:15:21;5.10;;;4.13;;
67902;SDS011;54708;43.612;1.568;2023-12-28T09:17:46;8.52;;;4.63;;
67902;SDS011;54708;43.612;1.568;2023-12-28T09:20:12;6.13;;;3.65;;
67902;SDS011;54708;43.612;1.568;2023-12-28T09:22:37;5.95;;;4.25;;
67902;SDS011;54708;43.612;1.568;2023-12-28T09:25:03;7.00;;;4.50;;
67902;SDS011;54708;43.612;1.568;2023-12-28T09:27:30;6.38;;;4.88;;
67902;SDS011;54708;43.612;1.568;2023-12-28T09:29:55;11.80;;;5.03;;
67902;SDS011;54708;43.612;1.568;2023-12-28T09:32:20;4.10;;;3.70;;
67902;SDS011;54708;43.612;1.568;2023-12-28T09:34:46;8.45;;;4.85;;
67902;SDS011;54708;43.612;1.568;2023-12-28T09:37:11;9.70;;;4.20;;
67902;SDS011;54708;43.612;1.568;2023-12-28T09:39:36;9.45;;;4.90;;
67902;SDS011;54708;43.612;1.568;2023-12-28T09:42:06;7.05;;;4.57;;
67902;SDS011;54708;43.612;1.568;2023-12-28T09:47:01;9.18;;;4.55;;
67902;SDS011;54708;43.612;1.568;2023-12-28T09:49:27;7.40;;;5.13;;
67902;SDS011;54708;43.612;1.568;2023-12-28T09:51:52;6.30;;;4.40;;
67902;SDS011;54708;43.612;1.568;2023-12-28T09:54:18;7.50;;;5.00;;
67902;SDS011;54708;43.612;1.568;2023-12-28T09:56:43;4.85;;;4.43;;
67902;SDS011;54708;43.612;1.568;2023-12-28T09:59:09;7.55;;;4.80;;
67902;SDS011;54708;43.612;1.568;2023-12-28T10:01:35;9.23;;;5.50;;
67902;SDS011;54708;43.612;1.568;2023-12-28T10:04:01;6.22;;;5.07;;
67902;SDS011;54708;43.612;1.568;2023-12-28T10:06:28;6.60;;;5.90;;
67902;SDS011;54708;43.612;1.568;2023-12-28T10:08:54;6.22;;;5.28;;
67902;SDS011;54708;43.612;1.568;2023-12-28T10:11:20;6.85;;;5.00;;
67902;SDS011;54708;43.612;1.568;2023-12-28T10:13:47;9.43;;;5.47;;
67902;SDS011;54708;43.612;1.568;2023-12-28T10:16:15;10.32;;;5.68;;
67902;SDS011;54708;43.612;1.568;2023-12-28T10:18:43;8.13;;;5.15;;
67902;SDS011;54708;43.612;1.568;2023-12-28T10:21:10;8.35;;;6.13;;
67902;SDS011;54708;43.612;1.568;2023-12-28T10:23:36;9.05;;;6.07;;
67902;SDS011;54708;43.612;1.568;2023-12-28T10:26:02;7.82;;;5.07;;
67902;SDS011;54708;43.612;1.568;2023-12-28T10:28:31;7.90;;;6.00;;
67902;SDS011;54708;43.612;1.568;2023-12-28T10:31:03;11.00;;;6.00;;
67902;SDS011;54708;43.612;1.568;2023-12-28T10:33:33;10.00;;;5.72;;
67902;SDS011;54708;43.612;1.568;2023-12-28T10:38:32;11.40;;;6.20;;
67902;SDS011;54708;43.612;1.568;2023-12-28T10:41:00;9.30;;;6.28;;
67902;SDS011;54708;43.612;1.568;2023-12-28T10:43:25;12.25;;;6.43;;
67902;SDS011;54708;43.612;1.568;2023-12-28T10:45:52;7.13;;;6.18;;
67902;SDS011;54708;43.612;1.568;2023-12-28T10:48:22;14.43;;;6.55;;
67902;SDS011;54708;43.612;1.568;2023-12-28T10:50:54;20.13;;;7.18;;
67902;SDS011;54708;43.612;1.568;2023-12-28T10:58:48;12.30;;;6.53;;
67902;SDS011;54708;43.612;1.568;2023-12-28T11:01:15;8.27;;;6.43;;
67902;SDS011;54708;43.612;1.568;2023-12-28T11:03:44;11.65;;;7.40;;
67902;SDS011;54708;43.612;1.568;2023-12-28T11:06:12;8.88;;;6.00;;
67902;SDS011;54708;43.612;1.568;2023-12-28T11:08:39;8.95;;;6.80;;
67902;SDS011;54708;43.612;1.568;2023-12-28T11:11:07;12.57;;;7.00;;
67902;SDS011;54708;43.612;1.568;2023-12-28T11:13:33;7.03;;;6.32;;
67902;SDS011;54708;43.612;1.568;2023-12-28T11:16:00;10.60;;;6.72;;
67902;SDS011;54708;43.612;1.568;2023-12-28T11:18:26;9.90;;;6.45;;
67902;SDS011;54708;43.612;1.568;2023-12-28T11:20:53;10.30;;;6.35;;
67902;SDS011;54708;43.612;1.568;2023-12-28T11:23:19;16.17;;;7.05;;
67902;SDS011;54708;43.612;1.568;2023-12-28T11:25:44;16.45;;;7.15;;
67902;SDS011;54708;43.612;1.568;2023-12-28T11:28:11;10.52;;;6.55;;
67902;SDS011;54708;43.612;1.568;2023-12-28T11:30:37;10.93;;;8.00;;
67902;SDS011;54708;43.612;1.568;2023-12-28T11:33:04;8.80;;;5.88;;
67902;SDS011;54708;43.612;1.568;2023-12-28T11:35:40;17.25;;;7.18;;
67902;SDS011;54708;43.612;1.568;2023-12-28T11:38:09;9.95;;;6.28;;
67902;SDS011;54708;43.612;1.568;2023-12-28T11:40:42;11.85;;;6.80;;
67902;SDS011;54708;43.612;1.568;2023-12-28T11:43:14;12.20;;;6.43;;
67902;SDS011;54708;43.612;1.568;2023-12-28T11:45:50;9.05;;;5.70;;
67902;SDS011;54708;43.612;1.568;2023-12-28T11:48:23;10.85;;;5.55;;
67902;SDS011;54708;43.612;1.568;2023-12-28T11:50:50;11.65;;;5.80;;
67902;SDS011;54708;43.612;1.568;2023-12-28T11:53:15;8.77;;;5.93;;
67902;SDS011;54708;43.612;1.568;2023-12-28T11:55:41;13.35;;;6.60;;
67902;SDS011;54708;43.612;1.568;2023-12-28T11:58:07;10.15;;;6.18;;
67902;SDS011;54708;43.612;1.568;2023-12-28T12:00:32;7.95;;;5.45;;
67902;SDS011;54708;43.612;1.568;2023-12-28T12:02:57;10.45;;;6.78;;
67902;SDS011;54708;43.612;1.568;2023-12-28T12:05:23;9.80;;;6.63;;
67902;SDS011;54708;43.612;1.568;2023-12-28T12:07:49;8.20;;;6.82;;
67902;SDS011;54708;43.612;1.568;2023-12-28T12:10:15;10.10;;;6.72;;
67902;SDS011;54708;43.612;1.568;2023-12-28T12:12:41;20.42;;;6.32;;
67902;SDS011;54708;43.612;1.568;2023-12-28T12:15:07;7.35;;;5.72;;
67902;SDS011;54708;43.612;1.568;2023-12-28T12:17:33;7.03;;;6.13;;
67902;SDS011;54708;43.612;1.568;2023-12-28T12:19:59;12.38;;;6.15;;
67902;SDS011;54708;43.612;1.568;2023-12-28T12:22:25;10.75;;;5.10;;
67902;SDS011;54708;43.612;1.568;2023-12-28T12:24:50;8.90;;;6.20;;
67902;SDS011;54708;43.612;1.568;2023-12-28T12:27:17;11.30;;;7.30;;
67902;SDS011;54708;43.612;1.568;2023-12-28T12:29:42;8.25;;;6.60;;
67902;SDS011;54708;43.612;1.568;2023-12-28T12:32:08;11.45;;;6.50;;
67902;SDS011;54708;43.612;1.568;2023-12-28T12:34:33;8.82;;;5.90;;
67902;SDS011;54708;43.612;1.568;2023-12-28T12:36:59;9.32;;;5.18;;
67902;SDS011;54708;43.612;1.568;2023-12-28T12:39:25;12.57;;;5.85;;
67902;SDS011;54708;43.612;1.568;2023-12-28T12:41:50;7.13;;;5.65;;
67902;SDS011;54708;43.612;1.568;2023-12-28T12:44:19;10.07;;;5.68;;
67902;SDS011;54708;43.612;1.568;2023-12-28T12:46:44;7.32;;;6.43;;
67902;SDS011;54708;43.612;1.568;2023-12-28T12:49:10;11.05;;;7.60;;
67902;SDS011;54708;43.612;1.568;2023-12-28T12:51:35;9.52;;;6.20;;
67902;SDS011;54708;43.612;1.568;2023-12-28T12:54:01;9.25;;;6.85;;
67902;SDS011;54708;43.612;1.568;2023-12-28T12:56:28;8.07;;;6.30;;
67902;SDS011;54708;43.612;1.568;2023-12-28T12:58:56;9.63;;;6.40;;
67902;SDS011;54708;43.612;1.568;2023-12-28T13:01:25;10.70;;;6.22;;
67902;SDS011;54708;43.612;1.568;2023-12-28T13:03:51;9.10;;;6.40;;
67902;SDS011;54708;43.612;1.568;2023-12-28T13:06:16;10.80;;;6.30;;
67902;SDS011;54708;43.612;1.568;2023-12-28T13:08:42;9.88;;;6.50;;
67902;SDS011;54708;43.612;1.568;2023-12-28T13:11:07;8.85;;;6.55;;
67902;SDS011;54708;43.612;1.568;2023-12-28T13:13:33;9.02;;;6.65;;
67902;SDS011;54708;43.612;1.568;2023-12-28T13:15:58;9.07;;;6.72;;
67902;SDS011;54708;43.612;1.568;2023-12-28T13:18:24;9.52;;;7.43;;
67902;SDS011;54708;43.612;1.568;2023-12-28T13:20:49;16.05;;;6.70;;
67902;SDS011;54708;43.612;1.568;2023-12-28T13:23:15;8.65;;;7.45;;
67902;SDS011;54708;43.612;1.568;2023-12-28T13:25:41;8.00;;;6.38;;
67902;SDS011;54708;43.612;1.568;2023-12-28T13:28:06;9.07;;;6.55;;
67902;SDS011;54708;43.612;1.568;2023-12-28T13:30:32;7.47;;;6.10;;
67902;SDS011;54708;43.612;1.568;2023-12-28T13:32:57;8.80;;;6.75;;
67902;SDS011;54708;43.612;1.568;2023-12-28T13:35:23;11.90;;;7.30;;
67902;SDS011;54708;43.612;1.568;2023-12-28T13:37:48;8.85;;;6.45;;
67902;SDS011;54708;43.612;1.568;2023-12-28T13:40:13;7.40;;;6.55;;
67902;SDS011;54708;43.612;1.568;2023-12-28T13:42:40;11.38;;;7.18;;
67902;SDS011;54708;43.612;1.568;2023-12-28T13:45:05;9.05;;;7.90;;
67902;SDS011;54708;43.612;1.568;2023-12-28T13:47:32;20.80;;;7.45;;
67902;SDS011;54708;43.612;1.568;2023-12-28T13:49:57;10.77;;;7.07;;
67902;SDS011;54708;43.612;1.568;2023-12-28T13:52:22;8.88;;;7.78;;
67902;SDS011;54708;43.612;1.568;2023-12-28T13:54:48;15.82;;;11.52;;
67902;SDS011;54708;43.612;1.568;2023-12-28T13:57:13;12.18;;;8.15;;
67902;SDS011;54708;43.612;1.568;2023-12-28T13:59:38;17.55;;;10.70;;
67902;SDS011;54708;43.612;1.568;2023-12-28T14:02:04;18.65;;;10.23;;
67902;SDS011;54708;43.612;1.568;2023-12-28T14:04:29;29.77;;;16.38;;
67902;SDS011;54708;43.612;1.568;2023-12-28T14:06:55;16.60;;;11.18;;
67902;SDS011;54708;43.612;1.568;2023-12-28T14:09:20;19.90;;;12.45;;
67902;SDS011;54708;43.612;1.568;2023-12-28T14:11:46;11.93;;;8.77;;
67902;SDS011;54708;43.612;1.568;2023-12-28T14:14:12;14.23;;;9.65;;
67902;SDS011;54708;43.612;1.568;2023-12-28T14:16:38;17.75;;;11.07;;
67902;SDS011;54708;43.612;1.568;2023-12-28T14:19:03;11.43;;;7.22;;
67902;SDS011;54708;43.612;1.568;2023-12-28T14:21:29;10.43;;;7.80;;
67902;SDS011;54708;43.612;1.568;2023-12-28T14:23:58;7.65;;;6.68;;
67902;SDS011;54708;43.612;1.568;2023-12-28T14:26:24;12.02;;;8.40;;
67902;SDS011;54708;43.612;1.568;2023-12-28T14:28:50;10.00;;;6.80;;
67902;SDS011;54708;43.612;1.568;2023-12-28T14:31:15;11.10;;;7.15;;
67902;SDS011;54708;43.612;1.568;2023-12-28T14:33:41;10.73;;;7.60;;
67902;SDS011;54708;43.612;1.568;2023-12-28T14:36:10;8.38;;;7.05;;
67902;SDS011;54708;43.612;1.568;2023-12-28T14:39:02;9.40;;;6.93;;
67902;SDS011;54708;43.612;1.568;2023-12-28T14:41:29;10.70;;;8.15;;
67902;SDS011;54708;43.612;1.568;2023-12-28T14:43:55;11.35;;;7.53;;
67902;SDS011;54708;43.612;1.568;2023-12-28T14:46:22;9.80;;;7.40;;